Time;durP1;ratioP1;P1;durP2;ratioP2;P2;SDS_P1;SDS_P2;PMS_P1;PMS_P2;Temp;Humidity;BMP_temperature;BMP_pressure;BME280_temperature;BME280_humidity;BME280_pressure;Samples;Min_cycle;Max_cycle;Signal;HPM_P1;HPM_P2
2022/09/30 00:02:20;;;;;;;;;;;;;;;18.23;78.08;100414.44;5093352;28;19920;-87
2022/09/30 00:04:47;;;;;;;;;;;;;;;18.21;78.31;100403.75;5088712;28;19931;-86
2022/09/30 00:07:12;;;;;;;;;;;;;;;18.28;78.08;100409.16;5086717;28;19939;-86
2022/09/30 00:09:39;;;;;;;;;;;;;;;18.35;77.80;100415.41;5090650;28;20376;-87
2022/09/30 00:12:04;;;;;;;;;;;;;;;18.31;77.69;100403.31;5090295;28;19976;-87
2022/09/30 00:14:30;;;;;;;;;;;;;;;18.24;77.83;100408.78;5068986;28;20381;-86
2022/09/30 00:16:55;;;;;;;;;;;;;;;18.27;77.89;100410.22;5088575;28;19943;-87
2022/09/30 00:19:21;;;;;;;;;;;;;;;18.29;77.55;100414.41;5071695;28;19962;-86
2022/09/30 00:21:46;;;;;;;;;;;;;;;18.22;78.14;100418.22;5089496;28;19924;-86
2022/09/30 00:24:13;;;;;;;;;;;;;;;18.28;77.61;100420.06;5092488;28;19934;-86
2022/09/30 00:26:39;;;;;;;;;;;;;;;18.15;78.15;100418.25;5095421;28;19942;-86
2022/09/30 00:29:04;;;;;;;;;;;;;;;18.09;78.34;100417.22;5072100;28;20384;-86
2022/09/30 00:31:30;;;;;;;;;;;;;;;18.13;78.54;100429.34;5072744;28;19998;-86
2022/09/30 00:34:08;;;;;;;;;;;;;;;18.00;79.09;100431.28;5088744;28;19916;-86
2022/09/30 00:36:37;;;;;;;;;;;;;;;18.07;78.87;100432.09;5086739;28;20372;-85
2022/09/30 00:39:04;;;;;;;;;;;;;;;18.02;78.79;100432.72;5084629;28;20403;-85
2022/09/30 00:41:30;;;;;;;;;;;;;;;18.04;78.84;100437.97;5087619;28;19938;-85
2022/09/30 00:43:55;;;;;;;;;;;;;;;18.04;78.92;100432.53;5071307;28;20371;-85
2022/09/30 00:46:37;;;;;;;;;;;;;;;18.06;78.55;100441.31;5089667;28;19920;-85
2022/09/30 00:49:07;;;;;;;;;;;;;;;18.09;78.23;100438.16;5067654;28;19920;-86
2022/09/30 00:51:34;;;;;;;;;;;;;;;18.04;78.46;100444.22;5062288;28;19917;-86
2022/09/30 00:54:00;;;;;;;;;;;;;;;18.00;78.65;100455.75;5092857;28;19996;-86
2022/09/30 00:56:32;;;;;;;;;;;;;;;18.02;79.07;100453.66;5081106;28;19927;-87
2022/09/30 00:59:02;;;;;;;;;;;;;;;17.98;79.46;100450.56;5070336;28;20001;-86
2022/09/30 01:01:27;;;;;;;;;;;;;;;17.96;79.36;100449.94;5091269;28;20399;-85
2022/09/30 01:03:53;;;;;;;;;;;;;;;17.98;78.80;100453.28;5090425;28;20027;-86
2022/09/30 01:06:20;;;;;;;;;;;;;;;17.93;78.94;100456.63;5076956;28;19928;-87
2022/09/30 01:08:51;;;;;;;;;;;;;;;17.95;78.76;100452.84;5072724;28;20552;-86
2022/09/30 01:11:16;;;;;;;;;;;;;;;17.87;79.11;100448.50;5072453;28;20417;-86
2022/09/30 01:13:42;;;;;;;;;;;;;;;17.88;78.73;100442.81;5071864;28;19920;-86
2022/09/30 01:16:26;;;;;;;;;;;;;;;17.86;79.02;100441.38;5054853;28;19946;-85
2022/09/30 01:19:10;;;;;;;;;;;;;;;17.80;79.20;100448.47;5078387;28;20326;-86
2022/09/30 01:21:58;;;;;;;;;;;;;;;17.73;79.87;100445.75;5096046;28;19920;-86
2022/09/30 01:24:42;;;;;;;;;;;;;;;17.80;79.56;100439.50;5085391;28;19916;-86
2022/09/30 01:27:15;;;;;;;;;;;;;;;17.73;79.74;100442.22;5088527;28;19920;-86
2022/09/30 01:29:40;;;;;;;;;;;;;;;17.75;79.24;100448.28;5084769;28;19920;-86
2022/09/30 01:32:09;;;;;;;;;;;;;;;17.76;79.27;100438.25;5091546;28;20695;-86
2022/09/30 01:34:52;;;;;;;;;;;;;;;17.74;79.03;100438.44;5092335;28;20018;-86
2022/09/30 01:37:25;;;;;;;;;;;;;;;17.74;79.07;100441.16;5068954;28;20011;-86
2022/09/30 01:39:59;;;;;;;;;;;;;;;17.71;79.18;100447.84;5075412;28;20005;-87
2022/09/30 01:42:41;;;;;;;;;;;;;;;17.59;79.70;100446.03;5072942;28;19983;-86
2022/09/30 01:45:12;;;;;;;;;;;;;;;17.64;79.72;100449.75;5072991;28;19955;-86
2022/09/30 01:47:42;;;;;;;;;;;;;;;17.67;79.46;100440.34;5065229;28;19986;-87
2022/09/30 01:50:16;;;;;;;;;;;;;;;17.65;79.50;100447.88;5062949;28;19927;-87
2022/09/30 01:52:51;;;;;;;;;;;;;;;17.66;79.73;100455.00;5090300;28;19988;-87
2022/09/30 01:55:22;;;;;;;;;;;;;;;17.66;79.35;100455.81;5089423;28;19920;-87
2022/09/30 01:57:50;;;;;;;;;;;;;;;17.60;79.80;100456.66;5078754;28;19927;-87
2022/09/30 02:00:16;;;;;;;;;;;;;;;17.58;79.63;100460.66;5095803;28;20011;-85
2022/09/30 02:02:45;;;;;;;;;;;;;;;17.60;79.63;100461.28;5076925;28;20016;-87
2022/09/30 02:05:13;;;;;;;;;;;;;;;17.59;79.69;100465.06;5095514;28;19927;-85
2022/09/30 02:07:41;;;;;;;;;;;;;;;17.57;80.15;100453.53;5076528;28;20445;-86
2022/09/30 02:10:19;;;;;;;;;;;;;;;17.34;81.14;100462.97;5093238;28;19920;-85
2022/09/30 02:13:05;;;;;;;;;;;;;;;17.18;82.09;100466.13;5075733;28;19924;-85
2022/09/30 02:15:33;;;;;;;;;;;;;;;17.16;81.99;100473.63;5088738;28;20479;-85
2022/09/30 02:18:00;;;;;;;;;;;;;;;17.24;81.53;100481.59;5073852;28;19943;-84
2022/09/30 02:20:28;;;;;;;;;;;;;;;17.23;81.54;100478.03;5078328;28;19971;-86
2022/09/30 02:22:56;;;;;;;;;;;;;;;17.18;81.85;100479.69;5093620;28;19982;-87
2022/09/30 02:25:24;;;;;;;;;;;;;;;17.14;82.06;100489.31;5091806;28;20011;-87
2022/09/30 02:27:56;;;;;;;;;;;;;;;17.19;82.05;100495.81;5086183;28;19920;-86
2022/09/30 02:30:21;;;;;;;;;;;;;;;17.15;82.28;100491.81;5087437;28;19947;-86
2022/09/30 02:32:51;;;;;;;;;;;;;;;17.13;82.47;100493.91;5071891;28;20383;-85
2022/09/30 02:35:36;;;;;;;;;;;;;;;17.13;82.54;100509.38;5069288;28;19920;-85
2022/09/30 02:38:04;;;;;;;;;;;;;;;17.17;82.33;100506.03;5092099;28;19920;-85
2022/09/30 02:40:35;;;;;;;;;;;;;;;17.14;82.24;100511.03;5073380;28;19920;-85
2022/09/30 02:43:02;;;;;;;;;;;;;;;17.14;82.25;100506.47;5073818;28;20007;-85
2022/09/30 02:45:27;;;;;;;;;;;;;;;17.03;82.44;100507.06;5072110;28;20384;-86
2022/09/30 02:48:10;;;;;;;;;;;;;;;17.02;82.57;100511.66;5070871;28;19943;-85
2022/09/30 02:50:38;;;;;;;;;;;;;;;16.91;83.60;100504.13;5091472;28;19991;-86
2022/09/30 02:53:17;;;;;;;;;;;;;;;16.83;83.85;100510.59;5070968;28;19928;-86
2022/09/30 02:55:51;;;;;;;;;;;;;;;16.76;84.59;100511.56;5095566;28;19924;-85
2022/09/30 02:58:20;;;;;;;;;;;;;;;16.81;84.52;100514.53;5088712;28;19966;-86
2022/09/30 03:00:47;;;;;;;;;;;;;;;16.91;83.04;100516.88;5078638;28;19942;-86
2022/09/30 03:03:17;;;;;;;;;;;;;;;16.99;80.69;100513.94;5103011;28;19921;-87
2022/09/30 03:05:43;;;;;;;;;;;;;;;16.96;80.68;100500.78;5073272;28;19920;-86
2022/09/30 03:08:09;;;;;;;;;;;;;;;17.02;81.06;100508.09;5079466;28;19935;-87
2022/09/30 03:10:35;;;;;;;;;;;;;;;16.97;81.03;100511.44;5104200;28;19924;-87
2022/09/30 03:13:09;;;;;;;;;;;;;;;16.90;81.14;100513.28;5099748;28;19927;-87
2022/09/30 03:15:38;;;;;;;;;;;;;;;16.90;81.24;100516.00;5066253;28;19927;-87
2022/09/30 03:18:08;;;;;;;;;;;;;;;16.82;82.26;100525.19;5077764;28;19920;-86
2022/09/30 03:20:36;;;;;;;;;;;;;;;16.84;82.06;100516.84;5073394;28;19916;-87
2022/09/30 03:23:20;;;;;;;;;;;;;;;16.89;81.78;100519.78;5072189;28;19920;-88
2022/09/30 03:25:48;;;;;;;;;;;;;;;16.83;82.73;100517.88;5088569;28;19944;-88
2022/09/30 03:28:26;;;;;;;;;;;;;;;16.76;83.03;100525.97;5089459;28;19916;-86
2022/09/30 03:31:03;;;;;;;;;;;;;;;16.66;83.79;100523.66;5069041;28;19928;-88
2022/09/30 03:33:43;;;;;;;;;;;;;;;16.54;83.70;100530.72;5072439;28;19923;-88
2022/09/30 03:36:22;;;;;;;;;;;;;;;16.63;83.21;100526.78;5073511;28;19924;-88
2022/09/30 03:38:52;;;;;;;;;;;;;;;16.58;83.55;100534.72;5108466;28;19920;-87
2022/09/30 03:41:36;;;;;;;;;;;;;;;16.39;84.33;100530.06;5067710;28;20391;-86
2022/09/30 03:44:08;;;;;;;;;;;;;;;16.36;84.59;100530.44;5111549;28;19920;-85
2022/09/30 03:46:37;;;;;;;;;;;;;;;16.44;83.77;100533.81;5114185;28;19924;-86
2022/09/30 03:49:05;;;;;;;;;;;;;;;16.49;83.58;100535.91;5094250;28;19920;-85
2022/09/30 03:51:30;;;;;;;;;;;;;;;16.44;83.85;100531.09;5066572;28;19928;-89
2022/09/30 03:53:55;;;;;;;;;;;;;;;16.48;83.68;100541.53;5086247;28;19920;-89
2022/09/30 03:56:28;;;;;;;;;;;;;;;16.37;83.31;100546.53;5097412;28;19920;-89
2022/09/30 03:58:54;;;;;;;;;;;;;;;16.35;83.36;100545.88;5088107;28;19961;-90
2022/09/30 04:01:25;;;;;;;;;;;;;;;16.40;82.61;100542.56;5099517;28;19921;-87
2022/09/30 04:03:52;;;;;;;;;;;;;;;16.27;82.65;100542.50;5096933;28;19924;-87
2022/09/30 04:06:42;;;;;;;;;;;;;;;16.16;83.01;100547.44;5080886;28;19970;-88
2022/09/30 04:09:09;;;;;;;;;;;;;;;16.29;82.55;100545.84;5092546;28;20289;-91
2022/09/30 04:11:36;;;;;;;;;;;;;;;16.23;82.73;100552.91;5090550;28;19966;-87
2022/09/30 04:14:01;;;;;;;;;;;;;;;16.24;83.25;100550.00;5087106;28;19920;-83
2022/09/30 04:16:31;;;;;;;;;;;;;;;16.19;82.49;100552.47;5089014;28;19916;-85
2022/09/30 04:18:56;;;;;;;;;;;;;;;16.13;82.58;100552.44;5088202;28;20301;-81
2022/09/30 04:21:22;;;;;;;;;;;;;;;16.24;82.52;100552.69;5073506;28;19946;-83
2022/09/30 04:23:47;;;;;;;;;;;;;;;16.33;82.21;100560.69;5091616;28;19924;-83
2022/09/30 04:26:15;;;;;;;;;;;;;;;16.34;81.93;100565.06;5070220;28;19924;-83
2022/09/30 04:28:40;;;;;;;;;;;;;;;16.35;82.32;100570.28;5082802;28;19971;-84
2022/09/30 04:31:06;;;;;;;;;;;;;;;16.42;81.73;100578.47;5090101;28;19941;-84
2022/09/30 04:33:31;;;;;;;;;;;;;;;16.46;81.60;100579.75;5064072;28;19927;-84
2022/09/30 04:35:59;;;;;;;;;;;;;;;16.55;80.72;100583.09;5055237;28;19966;-84
2022/09/30 04:38:28;;;;;;;;;;;;;;;16.63;80.48;100591.09;5064035;28;19921;-83
2022/09/30 04:40:53;;;;;;;;;;;;;;;16.71;80.38;100590.06;5046968;28;20312;-85
2022/09/30 04:43:22;;;;;;;;;;;;;;;16.81;80.04;100594.13;5069002;28;19920;-84
2022/09/30 04:45:47;;;;;;;;;;;;;;;16.80;80.56;100613.31;5060676;28;19963;-84
2022/09/30 04:48:12;;;;;;;;;;;;;;;16.90;79.90;100612.94;5076356;28;19965;-87
2022/09/30 04:50:38;;;;;;;;;;;;;;;16.88;80.01;100613.16;5103045;28;19924;-86
2022/09/30 04:53:03;;;;;;;;;;;;;;;17.00;79.82;100616.94;5081219;28;19970;-86
2022/09/30 04:55:29;;;;;;;;;;;;;;;17.05;79.47;100619.88;5079264;28;19920;-86
2022/09/30 04:57:54;;;;;;;;;;;;;;;17.14;78.88;100619.69;5077390;28;20234;-88
2022/09/30 05:00:19;;;;;;;;;;;;;;;17.23;78.21;100618.44;5094494;28;19928;-88
2022/09/30 05:02:45;;;;;;;;;;;;;;;17.35;77.84;100619.53;5089006;28;19931;-86
2022/09/30 05:05:10;;;;;;;;;;;;;;;17.43;77.46;100622.06;5051111;28;19921;-86
2022/09/30 05:07:36;;;;;;;;;;;;;;;17.45;77.17;100621.84;5098993;28;20343;-85
2022/09/30 05:10:01;;;;;;;;;;;;;;;17.60;76.73;100624.38;5092553;28;19924;-86
2022/09/30 05:12:26;;;;;;;;;;;;;;;17.68;76.46;100624.19;5072247;28;19927;-86
2022/09/30 05:14:52;;;;;;;;;;;;;;;17.79;76.42;100618.09;5055322;28;19920;-85
2022/09/30 05:17:20;;;;;;;;;;;;;;;17.87;76.23;100608.94;5091641;28;20394;-86
2022/09/30 05:19:45;;;;;;;;;;;;;;;17.86;76.08;100616.28;5076555;28;19926;-86
2022/09/30 05:22:12;;;;;;;;;;;;;;;17.97;76.05;100612.06;5087052;28;19940;-85
2022/09/30 05:24:37;;;;;;;;;;;;;;;18.01;75.72;100607.88;5103038;28;19919;-85
2022/09/30 05:27:03;;;;;;;;;;;;;;;18.14;75.11;100621.47;5054548;28;20015;-85
2022/09/30 05:29:29;;;;;;;;;;;;;;;18.21;74.72;100616.00;5095421;28;20080;-86
2022/09/30 05:31:54;;;;;;;;;;;;;;;18.35;73.65;100617.66;5077137;28;19991;-86
2022/09/30 05:34:21;;;;;;;;;;;;;;;18.50;73.13;100611.97;5095760;28;20395;-88
2022/09/30 05:36:47;;;;;;;;;;;;;;;18.64;72.94;100615.47;5095439;28;20440;-86
2022/09/30 05:39:13;;;;;;;;;;;;;;;18.80;72.24;100616.06;5063095;28;19920;-86
2022/09/30 05:41:40;;;;;;;;;;;;;;;19.03;71.17;100613.63;5077005;28;19927;-86
2022/09/30 05:44:08;;;;;;;;;;;;;;;19.86;68.83;100612.69;5076647;28;19926;-86
2022/09/30 05:46:33;;;;;;;;;;;;;;;20.86;64.79;100604.25;5076297;28;19939;-87
2022/09/30 05:48:59;;;;;;;;;;;;;;;21.71;60.63;100599.69;5093954;28;20380;-86
2022/09/30 05:51:25;;;;;;;;;;;;;;;22.37;58.95;100600.41;5067358;28;20380;-87
2022/09/30 05:53:50;;;;;;;;;;;;;;;22.95;54.19;100610.38;5077008;28;20353;-87
2022/09/30 05:56:17;;;;;;;;;;;;;;;23.56;53.32;100613.44;5075957;28;20070;-86
2022/09/30 05:58:44;;;;;;;;;;;;;;;24.17;50.90;100615.53;5095027;28;19916;-87
2022/09/30 06:01:11;;;;;;;;;;;;;;;24.59;52.64;100620.53;5075267;28;19927;-86
2022/09/30 06:03:37;;;;;;;;;;;;;;;24.83;53.17;100612.84;5059787;28;19923;-86
2022/09/30 06:06:03;;;;;;;;;;;;;;;25.31;51.92;100621.38;5093583;28;20023;-85
2022/09/30 06:08:29;;;;;;;;;;;;;;;25.59;51.17;100623.88;5076275;28;20020;-87
2022/09/30 06:10:55;;;;;;;;;;;;;;;25.84;50.65;100636.16;5075188;28;19927;-88
2022/09/30 06:13:21;;;;;;;;;;;;;;;26.05;49.78;100643.53;5073794;28;19921;-86
2022/09/30 06:15:56;;;;;;;;;;;;;;;26.16;47.45;100649.13;5084673;28;19970;-86
2022/09/30 06:18:21;;;;;;;;;;;;;;;26.33;47.06;100636.81;5068989;28;19918;-86
2022/09/30 06:20:46;;;;;;;;;;;;;;;26.56;46.85;100643.03;5083584;28;20081;-87
2022/09/30 06:23:13;;;;;;;;;;;;;;;26.67;46.33;100639.25;5089543;28;19916;-86
2022/09/30 06:25:38;;;;;;;;;;;;;;;26.80;45.92;100648.94;5094299;28;19924;-87
2022/09/30 06:28:04;;;;;;;;;;;;;;;26.90;45.30;100648.13;5075997;28;19912;-86
2022/09/30 06:30:29;;;;;;;;;;;;;;;26.98;44.80;100647.63;5093647;28;20335;-86
2022/09/30 06:32:56;;;;;;;;;;;;;;;27.02;44.83;100651.53;5096802;28;20398;-86
2022/09/30 06:35:23;;;;;;;;;;;;;;;27.16;45.50;100652.66;5103735;28;19976;-86
2022/09/30 06:37:52;;;;;;;;;;;;;;;27.32;44.54;100672.03;5076172;28;20395;-86
2022/09/30 06:40:20;;;;;;;;;;;;;;;27.51;44.30;100675.97;5093375;28;19923;-87
2022/09/30 06:42:47;;;;;;;;;;;;;;;27.71;43.93;100685.38;5075974;28;19980;-86
2022/09/30 06:45:12;;;;;;;;;;;;;;;27.93;43.13;100677.69;5062596;28;19917;-86
2022/09/30 06:47:38;;;;;;;;;;;;;;;28.05;42.91;100685.69;5076283;28;19951;-86
2022/09/30 06:50:04;;;;;;;;;;;;;;;28.30;42.40;100682.03;5076551;28;19967;-86
2022/09/30 06:52:30;;;;;;;;;;;;;;;28.46;41.52;100693.94;5075326;28;19977;-84
2022/09/30 06:54:55;;;;;;;;;;;;;;;28.63;41.16;100701.91;5093667;28;20394;-86
2022/09/30 06:57:23;;;;;;;;;;;;;;;28.84;39.52;100713.75;5093115;28;20028;-86
2022/09/30 06:59:49;;;;;;;;;;;;;;;29.19;39.24;100704.50;5075662;28;19920;-85
2022/09/30 07:02:15;;;;;;;;;;;;;;;29.51;38.49;100703.22;5074978;28;19924;-86
2022/09/30 07:04:40;;;;;;;;;;;;;;;29.50;38.15;100709.03;5074863;28;19924;-86
2022/09/30 07:07:06;;;;;;;;;;;;;;;29.88;38.48;100707.44;5092972;28;19927;-85
2022/09/30 07:09:31;;;;;;;;;;;;;;;29.98;38.32;100710.09;5074825;28;20391;-86
2022/09/30 07:11:56;;;;;;;;;;;;;;;30.39;37.95;100715.34;5087057;28;19954;-86
2022/09/30 07:14:22;;;;;;;;;;;;;;;30.71;37.13;100716.66;5088638;28;19926;-88
2022/09/30 07:16:52;;;;;;;;;;;;;;;30.96;35.45;100723.88;5090855;28;19970;-87
2022/09/30 07:19:21;;;;;;;;;;;;;;;31.64;35.15;100725.50;5093314;28;19916;-86
2022/09/30 07:21:48;;;;;;;;;;;;;;;32.13;33.76;100721.41;5092658;28;19924;-86
2022/09/30 07:24:17;;;;;;;;;;;;;;;32.50;32.51;100724.34;5093056;28;19973;-87
2022/09/30 07:26:44;;;;;;;;;;;;;;;33.13;30.69;100712.59;5063438;28;19920;-86
2022/09/30 07:29:13;;;;;;;;;;;;;;;33.67;29.30;100710.00;5093838;28;19965;-85
2022/09/30 07:31:38;;;;;;;;;;;;;;;34.00;28.67;100706.97;5065211;28;20003;-86
2022/09/30 07:34:05;;;;;;;;;;;;;;;34.07;29.20;100707.34;5065472;28;20004;-86
2022/09/30 07:36:33;;;;;;;;;;;;;;;34.68;27.11;100705.75;5081326;28;20340;-86
2022/09/30 07:38:59;;;;;;;;;;;;;;;35.29;26.36;100699.53;5092565;28;19923;-85
2022/09/30 07:41:26;;;;;;;;;;;;;;;35.69;25.21;100699.41;5075190;28;19924;-85
2022/09/30 07:43:51;;;;;;;;;;;;;;;35.93;24.86;100705.28;5072767;28;20375;-86
2022/09/30 07:46:23;;;;;;;;;;;;;;;36.88;23.97;100710.97;5090803;28;19931;-86
2022/09/30 07:48:50;;;;;;;;;;;;;;;37.07;23.30;100711.38;5055497;28;20011;-86
2022/09/30 07:51:17;;;;;;;;;;;;;;;38.05;22.30;100707.47;5072736;28;19928;-87
2022/09/30 07:53:44;;;;;;;;;;;;;;;37.72;22.15;100709.09;5067165;28;19926;-87
2022/09/30 07:56:10;;;;;;;;;;;;;;;38.35;21.85;100694.09;5090776;28;19994;-88
2022/09/30 07:58:35;;;;;;;;;;;;;;;38.46;21.49;100700.09;5083648;28;20403;-89
2022/09/30 08:01:02;;;;;;;;;;;;;;;38.81;21.18;100700.50;5080400;28;19920;-87
2022/09/30 08:03:30;;;;;;;;;;;;;;;38.53;22.08;100701.19;5090294;28;19924;-87
2022/09/30 08:05:55;;;;;;;;;;;;;;;39.26;21.05;100705.94;5086620;28;20015;-88
2022/09/30 08:08:21;;;;;;;;;;;;;;;39.76;20.96;100711.44;5075562;28;19978;-87
2022/09/30 08:10:46;;;;;;;;;;;;;;;40.01;19.81;100723.44;5077990;28;19924;-87
2022/09/30 08:13:15;;;;;;;;;;;;;;;39.94;19.69;100712.81;5095369;28;19924;-87
2022/09/30 08:15:42;;;;;;;;;;;;;;;39.75;19.97;100705.00;5115737;28;20022;-89
2022/09/30 08:18:07;;;;;;;;;;;;;;;39.70;20.28;100704.47;5098183;28;19924;-86
2022/09/30 08:20:33;;;;;;;;;;;;;;;39.91;20.08;100707.91;5094743;28;19916;-86
2022/09/30 08:22:59;;;;;;;;;;;;;;;39.68;19.86;100710.44;5071470;28;19987;-85
2022/09/30 08:25:26;;;;;;;;;;;;;;;41.01;18.96;100706.34;5086055;28;19938;-85
2022/09/30 08:27:53;;;;;;;;;;;;;;;42.25;18.03;100719.88;5065030;28;19927;-87
2022/09/30 08:30:19;;;;;;;;;;;;;;;41.68;17.15;100713.88;5085368;28;20002;-85
2022/09/30 08:32:44;;;;;;;;;;;;;;;41.78;17.49;100720.97;5091290;28;20383;-86
2022/09/30 08:35:09;;;;;;;;;;;;;;;40.89;18.73;100718.56;5044681;28;20249;-86
2022/09/30 08:37:35;;;;;;;;;;;;;;;41.32;18.79;100725.19;5088874;28;20030;-88
2022/09/30 08:40:02;;;;;;;;;;;;;;;40.63;18.99;100716.28;5090842;28;19920;-85
2022/09/30 08:42:30;;;;;;;;;;;;;;;41.20;18.20;100719.69;5084757;28;19942;-90
2022/09/30 08:45:00;;;;;;;;;;;;;;;40.25;18.85;100726.19;5069734;28;20357;-89
2022/09/30 08:47:29;;;;;;;;;;;;;;;39.02;20.31;100729.31;5082301;28;19923;-88
2022/09/30 08:50:15;;;;;;;;;;;;;;;39.76;20.07;100725.53;5089213;28;19916;-87
2022/09/30 08:52:41;;;;;;;;;;;;;;;40.12;19.28;100744.28;5073109;28;19947;-88
2022/09/30 08:55:15;;;;;;;;;;;;;;;39.45;20.36;100746.72;5069777;28;20392;-90
2022/09/30 08:57:52;;;;;;;;;;;;;;;40.58;18.94;100746.72;5091620;28;20018;-93
2022/09/30 09:00:18;;;;;;;;;;;;;;;42.16;17.61;100757.63;5065393;28;19924;-89
2022/09/30 09:02:54;;;;;;;;;;;;;;;43.44;17.18;100748.91;5074044;28;20339;-89
2022/09/30 09:05:28;;;;;;;;;;;;;;;44.93;15.61;100750.94;5081858;28;19917;-90
2022/09/30 09:07:57;;;;;;;;;;;;;;;45.40;14.86;100746.44;5068705;28;19917;-89
2022/09/30 09:10:26;;;;;;;;;;;;;;;46.44;13.77;100746.00;5093926;28;19916;-89
2022/09/30 09:12:58;;;;;;;;;;;;;;;47.25;13.37;100755.69;5079602;28;19916;-88
2022/09/30 09:15:26;;;;;;;;;;;;;;;48.11;12.59;100749.66;5094647;28;19930;-86
2022/09/30 09:18:17;;;;;;;;;;;;;;;48.70;12.38;100763.09;5095258;28;19912;-89
2022/09/30 09:20:52;;;;;;;;;;;;;;;48.52;12.02;100754.69;5068844;28;19920;-89
2022/09/30 09:23:17;;;;;;;;;;;;;;;48.88;12.26;100754.38;5098553;28;20410;-90
2022/09/30 09:25:45;;;;;;;;;;;;;;;48.95;11.90;100756.38;5092097;28;19923;-89
2022/09/30 09:28:24;;;;;;;;;;;;;;;49.62;11.59;100754.03;5092711;28;19917;-89
2022/09/30 09:30:51;;;;;;;;;;;;;;;50.16;10.92;100753.31;5092026;28;19985;-89
2022/09/30 09:33:17;;;;;;;;;;;;;;;49.18;11.46;100756.53;5070758;28;19927;-88
2022/09/30 09:35:46;;;;;;;;;;;;;;;49.64;11.23;100758.06;5088555;28;20015;-89
2022/09/30 09:38:23;;;;;;;;;;;;;;;46.61;13.39;100759.38;5073878;28;20030;-88
2022/09/30 09:40:56;;;;;;;;;;;;;;;46.91;13.32;100758.19;5092426;28;19920;-88
2022/09/30 09:43:25;;;;;;;;;;;;;;;46.88;13.17;100751.28;5089272;28;19939;-88
2022/09/30 09:45:53;;;;;;;;;;;;;;;44.50;15.00;100744.91;5078264;28;20461;-87
2022/09/30 09:48:19;;;;;;;;;;;;;;;45.79;14.42;100736.47;5074242;28;19916;-87
2022/09/30 09:50:59;;;;;;;;;;;;;;;47.45;13.19;100730.41;5089839;28;19927;-88
2022/09/30 09:53:46;;;;;;;;;;;;;;;47.88;12.81;100741.66;5108411;28;19923;-87
2022/09/30 09:56:17;;;;;;;;;;;;;;;47.39;13.05;100737.75;5092795;28;19981;-86
2022/09/30 09:59:02;;;;;;;;;;;;;;;47.10;13.73;100743.53;5091319;28;19916;-88
2022/09/30 10:01:32;;;;;;;;;;;;;;;47.70;13.18;100738.88;5093572;28;19916;-88
2022/09/30 10:04:17;;;;;;;;;;;;;;;46.27;14.34;100742.69;5062203;28;19916;-88
2022/09/30 10:06:46;;;;;;;;;;;;;;;46.20;14.74;100734.16;5083731;28;19978;-87
2022/09/30 10:09:21;;;;;;;;;;;;;;;45.66;15.70;100725.47;5091416;28;19912;-88
2022/09/30 10:11:46;;;;;;;;;;;;;;;46.70;14.70;100731.34;5091136;28;19920;-86
2022/09/30 10:14:12;;;;;;;;;;;;;;;46.30;15.27;100727.66;5072942;28;19916;-87
2022/09/30 10:16:37;;;;;;;;;;;;;;;46.44;14.76;100734.63;5075777;28;19921;-88
2022/09/30 10:19:03;;;;;;;;;;;;;;;45.72;15.80;100734.41;5056135;28;20010;-87
2022/09/30 10:21:29;;;;;;;;;;;;;;;45.01;16.59;100729.94;5072704;28;19945;-87
2022/09/30 10:23:56;;;;;;;;;;;;;;;44.91;16.13;100736.38;5103747;28;19912;-86
2022/09/30 10:26:23;;;;;;;;;;;;;;;44.63;16.95;100726.41;5098333;28;19927;-88
2022/09/30 10:28:58;;;;;;;;;;;;;;;44.93;16.72;100727.44;5076454;28;20439;-86
2022/09/30 10:31:50;;;;;;;;;;;;;;;44.93;16.71;100730.28;5089354;28;20014;-87
2022/09/30 10:34:24;;;;;;;;;;;;;;;43.77;17.52;100728.31;5080917;28;19920;-88
2022/09/30 10:36:50;;;;;;;;;;;;;;;43.73;17.23;100721.81;5093838;28;19993;-88
2022/09/30 10:39:19;;;;;;;;;;;;;;;44.85;16.86;100720.94;5077316;28;20449;-87
2022/09/30 10:41:45;;;;;;;;;;;;;;;45.16;15.77;100719.50;5077978;28;19916;-87
2022/09/30 10:44:20;;;;;;;;;;;;;;;45.75;15.39;100727.13;5078919;28;19923;-88
2022/09/30 10:46:46;;;;;;;;;;;;;;;44.20;16.33;100723.16;5080642;28;19917;-87
2022/09/30 10:49:23;;;;;;;;;;;;;;;42.17;18.22;100719.75;5091572;28;19926;-87
2022/09/30 10:51:48;;;;;;;;;;;;;;;43.26;17.18;100717.53;5098914;28;19912;-88
2022/09/30 10:54:34;;;;;;;;;;;;;;;42.62;17.67;100722.97;5097469;28;19988;-87
2022/09/30 10:57:02;;;;;;;;;;;;;;;43.34;17.61;100707.13;5097916;28;19931;-87
2022/09/30 10:59:28;;;;;;;;;;;;;;;43.05;17.26;100717.19;5101536;28;19912;-88
2022/09/30 11:01:55;;;;;;;;;;;;;;;43.34;16.93;100710.78;5096873;28;19923;-87
2022/09/30 11:04:34;;;;;;;;;;;;;;;43.92;15.95;100725.66;5078903;28;19978;-88
2022/09/30 11:07:09;;;;;;;;;;;;;;;42.54;16.81;100715.56;5063098;28;19916;-87
2022/09/30 11:09:39;;;;;;;;;;;;;;;40.79;18.59;100713.50;5097740;28;19912;-88
2022/09/30 11:12:10;;;;;;;;;;;;;;;42.10;17.77;100716.78;5077425;28;20319;-87
2022/09/30 11:14:44;;;;;;;;;;;;;;;42.36;16.97;100720.88;5077406;28;19934;-87
2022/09/30 11:17:28;;;;;;;;;;;;;;;42.34;17.61;100723.28;5076268;28;19985;-89
2022/09/30 11:20:22;;;;;;;;;;;;;;;41.47;17.94;100719.91;5094648;28;19934;-88
2022/09/30 11:22:51;;;;;;;;;;;;;;;41.97;17.69;100720.97;5074290;28;19925;-88
2022/09/30 11:25:19;;;;;;;;;;;;;;;40.65;18.65;100719.56;5075691;28;19963;-88
2022/09/30 11:27:57;;;;;;;;;;;;;;;39.87;19.38;100718.25;5075000;28;19955;-87
2022/09/30 11:30:23;;;;;;;;;;;;;;;40.13;19.40;100722.56;5076817;28;20360;-86
2022/09/30 11:32:59;;;;;;;;;;;;;;;38.51;20.58;100722.34;5077904;28;19926;-87
2022/09/30 11:35:37;;;;;;;;;;;;;;;38.15;20.76;100718.28;5090175;28;19956;-88
2022/09/30 11:38:08;;;;;;;;;;;;;;;37.20;22.03;100728.28;5094892;28;19941;-87
2022/09/30 11:40:36;;;;;;;;;;;;;;;37.90;21.23;100726.56;5075926;28;19916;-87
2022/09/30 11:43:13;;;;;;;;;;;;;;;36.80;21.77;100734.22;5058530;28;20467;-87
2022/09/30 11:45:41;;;;;;;;;;;;;;;36.54;22.50;100735.13;5092287;28;19916;-87
2022/09/30 11:48:07;;;;;;;;;;;;;;;35.98;22.90;100739.84;5091376;28;19982;-88
2022/09/30 11:50:37;;;;;;;;;;;;;;;35.61;23.49;100736.56;5091512;28;20357;-87
2022/09/30 11:53:15;;;;;;;;;;;;;;;33.74;25.17;100732.69;5076211;28;19946;-87
2022/09/30 11:55:53;;;;;;;;;;;;;;;34.47;25.25;100722.19;5082952;28;20347;-85
2022/09/30 11:58:19;;;;;;;;;;;;;;;33.94;25.09;100733.31;5111864;28;19916;-88
2022/09/30 12:00:46;;;;;;;;;;;;;;;34.29;25.35;100737.19;5076590;28;19981;-88
2022/09/30 12:03:16;;;;;;;;;;;;;;;33.92;25.67;100735.59;5076528;28;19924;-89
2022/09/30 12:05:42;;;;;;;;;;;;;;;33.89;25.65;100739.03;5074614;28;20311;-89
2022/09/30 12:08:20;;;;;;;;;;;;;;;32.77;26.94;100743.06;5077022;28;19926;-89
2022/09/30 12:10:47;;;;;;;;;;;;;;;32.10;27.93;100735.06;5100790;28;19953;-88
2022/09/30 12:13:18;;;;;;;;;;;;;;;32.00;28.68;100741.63;5070801;28;19927;-89
2022/09/30 12:15:45;;;;;;;;;;;;;;;31.79;28.67;100741.09;5073892;28;20034;-87
2022/09/30 12:18:13;;;;;;;;;;;;;;;31.55;29.31;100730.06;5082976;28;20299;-88
2022/09/30 12:20:43;;;;;;;;;;;;;;;31.24;29.78;100733.25;5059806;28;19916;-88
2022/09/30 12:23:19;;;;;;;;;;;;;;;31.36;29.23;100726.44;5088978;28;19920;-88
2022/09/30 12:25:46;;;;;;;;;;;;;;;31.36;29.92;100729.22;5074355;28;20656;-87
2022/09/30 12:31:09;;;;;;;;;;;;;;;31.65;29.68;100729.91;5069028;28;20432;-89
2022/09/30 12:33:40;;;;;;;;;;;;;;;31.40;30.77;100728.34;5101841;28;19986;-88
2022/09/30 12:36:18;;;;;;;;;;;;;;;31.64;30.60;100733.81;5057636;28;19916;-87
2022/09/30 12:39:01;;;;;;;;;;;;;;;31.79;30.29;100740.28;5091667;28;19920;-88
2022/09/30 12:41:37;;;;;;;;;;;;;;;31.53;30.87;100741.47;5067576;28;19916;-89
2022/09/30 12:44:21;;;;;;;;;;;;;;;30.49;33.52;100748.50;5073578;28;19968;-89
2022/09/30 12:47:14;;;;;;;;;;;;;;;30.02;35.27;100744.47;5091973;28;19927;-89
2022/09/30 12:49:39;;;;;;;;;;;;;;;30.21;35.12;100736.25;5072865;28;20340;-86
2022/09/30 12:52:14;;;;;;;;;;;;;;;30.34;35.12;100745.03;5081194;28;19920;-88